Terminal Aerodrome Forecast
Issued by NWS Tampa Bay Area, FL

Home | Current Version | Previous Version | Text Only | Print | Product List | Glossary On
Versions: 1 2 3 4 5 6 7 8 9 10 11 12 13 14 15
000
FTUS42 KTBW 020500 RRA
TAFSRQ
TAF
KSRQ 020542Z 0206/0306 00000KT P6SM SCT250
     FM021800 30006KT P6SM FEW100 SCT250
     FM022100 30007KT P6SM VCTS SCT035CB SCT150
     FM030000 32004KT P6SM BKN040
     FM030300 VRB03KT P6SM FEW005 SCT100=

USA.gov is the U.S. government's official web portal to all federal, state and local government web resources and services.